Terminal Aerodrome Forecast
Issued by NWS

Home | Current Version | Previous Version | Text Only | Print | Product List | Glossary On
Versions: 1 2 3 4 5 6 7 8 9 10 11 12 13 14 15 16 17 18 19
174
FTUS46 KSGX 241127
TAFSNA
TAF
KSNA 241127Z 2412/2512 VRB04KT P6SM SCT040 SCT120
     FM242000 24007KT P6SM SCT035 SCT150
     FM250100 VRB04KT P6SM SKC=

USA.gov is the U.S. government's official web portal to all federal, state and local government web resources and services.